createdAt,value
2023-01-29T00:00:15.956Z,1016.89
2023-01-29T00:01:15.375Z,1016.91
2023-01-29T00:02:15.433Z,1016.92
2023-01-29T00:03:15.409Z,1016.93
2023-01-29T00:04:15.353Z,1016.92
2023-01-29T00:05:27.534Z,1016.91
2023-01-29T00:06:15.348Z,1016.91
2023-01-29T00:07:15.346Z,1016.90
2023-01-29T00:08:19.463Z,1016.89
2023-01-29T00:09:15.303Z,1016.89
2023-01-29T00:10:15.778Z,1016.88
2023-01-29T00:11:15.276Z,1016.85
2023-01-29T00:12:15.268Z,1016.80
2023-01-29T00:13:15.262Z,1016.77
2023-01-29T00:14:15.343Z,1016.74
2023-01-29T00:15:15.272Z,1016.72
2023-01-29T00:16:15.228Z,1016.70
2023-01-29T00:17:15.255Z,1016.68
2023-01-29T00:18:15.249Z,1016.69
2023-01-29T00:19:15.248Z,1016.70
2023-01-29T00:20:15.649Z,1016.71
2023-01-29T00:21:15.186Z,1016.71
2023-01-29T00:22:15.201Z,1016.71
2023-01-29T00:23:15.177Z,1016.71
2023-01-29T00:24:15.196Z,1016.71
2023-01-29T00:25:15.169Z,1016.71
2023-01-29T00:26:15.172Z,1016.72
2023-01-29T00:27:15.137Z,1016.75
2023-01-29T00:28:15.121Z,1016.74
2023-01-29T00:29:15.115Z,1016.73
2023-01-29T00:30:15.539Z,1016.73
2023-01-29T00:31:15.294Z,1016.72
2023-01-29T00:32:15.277Z,1016.70
2023-01-29T00:33:15.056Z,1016.68
2023-01-29T00:34:15.066Z,1016.67
2023-01-29T00:35:15.075Z,1016.67
2023-01-29T00:36:15.076Z,1016.67
2023-01-29T00:37:15.015Z,1016.67
2023-01-29T00:38:15.015Z,1016.67
2023-01-29T00:39:15.014Z,1016.65
2023-01-29T00:40:15.573Z,1016.63
2023-01-29T00:41:14.983Z,1016.62
2023-01-29T00:42:15.088Z,1016.61
2023-01-29T00:43:14.962Z,1016.58
2023-01-29T00:44:14.956Z,1016.56
2023-01-29T00:45:15.002Z,1016.52
2023-01-29T00:46:15.017Z,1016.49
2023-01-29T00:47:14.928Z,1016.46
2023-01-29T00:48:22.415Z,1016.44
2023-01-29T00:49:21.415Z,1016.45
2023-01-29T00:50:22.585Z,1016.47
2023-01-29T00:51:21.383Z,1016.48
2023-01-29T00:52:14.884Z,1016.49
2023-01-29T00:53:14.867Z,1016.50
2023-01-29T00:54:14.882Z,1016.48
2023-01-29T00:55:14.864Z,1016.47
2023-01-29T00:56:14.849Z,1016.47
2023-01-29T00:57:14.864Z,1016.46
2023-01-29T00:58:14.816Z,1016.45
2023-01-29T00:59:14.807Z,1016.42
2023-01-29T01:00:15.202Z,1016.38
2023-01-29T01:01:14.875Z,1016.36
2023-01-29T01:02:14.836Z,1016.37
2023-01-29T01:03:14.770Z,1016.36
2023-01-29T01:04:14.775Z,1016.34
2023-01-29T01:05:14.775Z,1016.29
2023-01-29T01:06:14.747Z,1016.24
2023-01-29T01:07:16.623Z,1016.20
2023-01-29T01:08:14.752Z,1016.18
2023-01-29T01:09:14.723Z,1016.19
2023-01-29T01:10:14.992Z,1016.20
2023-01-29T01:11:14.693Z,1016.23
2023-01-29T01:12:14.694Z,1016.22
2023-01-29T01:13:14.699Z,1016.18
2023-01-29T01:14:14.714Z,1016.16
2023-01-29T01:15:15.899Z,1016.13
2023-01-29T01:16:14.667Z,1016.14
2023-01-29T01:17:14.633Z,1016.16
2023-01-29T01:18:14.645Z,1016.19
2023-01-29T01:19:14.873Z,1016.20
2023-01-29T01:20:15.438Z,1016.19
2023-01-29T01:21:14.599Z,1016.17
2023-01-29T01:22:14.584Z,1016.15
2023-01-29T01:23:14.575Z,1016.15
2023-01-29T01:24:14.616Z,1016.16
2023-01-29T01:25:14.578Z,1016.17
2023-01-29T01:26:14.538Z,1016.19
2023-01-29T01:27:14.539Z,1016.21
2023-01-29T01:28:14.525Z,1016.22
2023-01-29T01:29:14.520Z,1016.25
2023-01-29T01:30:15.041Z,1016.30
2023-01-29T01:31:14.685Z,1016.34
2023-01-29T01:32:14.495Z,1016.37
2023-01-29T01:33:14.501Z,1016.42
2023-01-29T01:34:14.462Z,1016.43
2023-01-29T01:35:14.486Z,1016.42
2023-01-29T01:36:14.446Z,1016.39
2023-01-29T01:37:14.436Z,1016.35
2023-01-29T01:38:14.441Z,1016.31
2023-01-29T01:39:14.443Z,1016.26
2023-01-29T01:40:14.860Z,1016.25
2023-01-29T01:41:14.414Z,1016.25
2023-01-29T01:42:14.397Z,1016.23
2023-01-29T01:43:14.377Z,1016.23
2023-01-29T01:44:14.404Z,1016.26
2023-01-29T01:45:14.406Z,1016.31
2023-01-29T01:46:14.425Z,1016.33
2023-01-29T01:47:14.342Z,1016.31
2023-01-29T01:48:14.347Z,1016.27
2023-01-29T01:49:14.345Z,1016.26
2023-01-29T01:50:15.005Z,1016.24
2023-01-29T01:51:14.314Z,1016.24
2023-01-29T01:52:14.293Z,1016.21
2023-01-29T01:53:14.287Z,1016.22
2023-01-29T01:54:14.277Z,1016.24
2023-01-29T01:55:14.300Z,1016.27
2023-01-29T01:56:14.254Z,1016.28
2023-01-29T01:57:14.254Z,1016.29
2023-01-29T01:58:14.247Z,1016.28
2023-01-29T01:59:14.263Z,1016.26
2023-01-29T02:00:14.536Z,1016.25
2023-01-29T02:01:14.331Z,1016.25
2023-01-29T02:02:14.219Z,1016.26
2023-01-29T02:03:14.209Z,1016.27
2023-01-29T02:04:14.199Z,1016.29
2023-01-29T02:05:14.210Z,1016.29
2023-01-29T02:06:14.351Z,1016.30
2023-01-29T02:07:14.146Z,1016.31
2023-01-29T02:08:14.154Z,1016.32
2023-01-29T02:09:14.132Z,1016.33
2023-01-29T02:10:14.444Z,1016.35
2023-01-29T02:11:14.106Z,1016.34
2023-01-29T02:12:14.125Z,1016.36
2023-01-29T02:13:20.584Z,1016.40
2023-01-29T02:14:14.097Z,1016.44
2023-01-29T02:15:14.089Z,1016.48
2023-01-29T02:16:14.093Z,1016.51
2023-01-29T02:17:14.124Z,1016.50
2023-01-29T02:18:14.046Z,1016.50
2023-01-29T02:19:14.030Z,1016.51
2023-01-29T02:20:14.280Z,1016.51
2023-01-29T02:21:14.008Z,1016.50
2023-01-29T02:22:14.051Z,1016.49
2023-01-29T02:23:14.000Z,1016.50
2023-01-29T02:24:14.041Z,1016.52
2023-01-29T02:25:14.019Z,1016.52
2023-01-29T02:26:13.961Z,1016.51
2023-01-29T02:27:13.973Z,1016.48
2023-01-29T02:28:13.953Z,1016.44
2023-01-29T02:29:13.942Z,1016.44
2023-01-29T02:30:14.168Z,1016.44
2023-01-29T02:31:13.993Z,1016.46
2023-01-29T02:32:13.903Z,1016.45
2023-01-29T02:33:13.905Z,1016.44
2023-01-29T02:34:13.894Z,1016.40
2023-01-29T02:35:13.898Z,1016.36
2023-01-29T02:36:13.897Z,1016.33
2023-01-29T02:37:13.865Z,1016.33
2023-01-29T02:38:13.870Z,1016.36
2023-01-29T02:39:13.839Z,1016.40
2023-01-29T02:40:13.986Z,1016.42
2023-01-29T02:41:13.816Z,1016.44
2023-01-29T02:42:13.814Z,1016.43
2023-01-29T02:43:13.809Z,1016.44
2023-01-29T02:44:13.805Z,1016.45
2023-01-29T02:45:13.796Z,1016.47
2023-01-29T02:46:13.853Z,1016.49
2023-01-29T02:47:13.767Z,1016.50
2023-01-29T02:48:13.760Z,1016.50
2023-01-29T02:49:13.756Z,1016.48
2023-01-29T02:50:13.789Z,1016.46
2023-01-29T02:51:13.729Z,1016.44
2023-01-29T02:52:13.721Z,1016.43
2023-01-29T02:53:13.717Z,1016.44
2023-01-29T02:54:13.698Z,1016.44
2023-01-29T02:55:13.761Z,1016.45
2023-01-29T02:56:13.686Z,1016.47
2023-01-29T02:57:13.663Z,1016.50
2023-01-29T02:58:13.665Z,1016.51
2023-01-29T02:59:13.650Z,1016.53
2023-01-29T03:00:13.958Z,1016.54
2023-01-29T03:01:13.699Z,1016.55
2023-01-29T03:02:13.664Z,1016.55
2023-01-29T03:03:13.607Z,1016.55
2023-01-29T03:04:13.595Z,1016.55
2023-01-29T03:05:21.101Z,1016.54
2023-01-29T03:06:20.080Z,1016.51
2023-01-29T03:07:14.209Z,1016.50
2023-01-29T03:08:13.562Z,1016.48
2023-01-29T03:10:40.656Z,1016.48
2023-01-29T03:10:45.708Z,1016.51
2023-01-29T03:11:45.680Z,1016.53
2023-01-29T03:12:45.677Z,1016.54
2023-01-29T03:13:45.652Z,1016.54
2023-01-29T03:14:45.651Z,1016.54
2023-01-29T03:15:45.665Z,1016.54
2023-01-29T03:16:45.748Z,1016.51
2023-01-29T03:17:45.639Z,1016.50
2023-01-29T03:18:45.645Z,1016.50
2023-01-29T03:19:45.603Z,1016.48
2023-01-29T03:20:45.614Z,1016.45
2023-01-29T03:21:45.601Z,1016.44
2023-01-29T03:22:45.618Z,1016.43
2023-01-29T03:23:45.555Z,1016.45
2023-01-29T03:24:45.560Z,1016.48
2023-01-29T03:25:53.145Z,1016.49
2023-01-29T03:26:52.025Z,1016.47
2023-01-29T03:27:45.524Z,1016.46
2023-01-29T03:28:45.539Z,1016.45
2023-01-29T03:29:45.513Z,1016.44
2023-01-29T03:30:45.528Z,1016.44
2023-01-29T03:31:45.621Z,1016.43
2023-01-29T03:32:45.477Z,1016.40
2023-01-29T03:33:45.462Z,1016.37
2023-01-29T03:34:45.484Z,1016.36
2023-01-29T03:35:45.478Z,1016.36
2023-01-29T03:36:45.477Z,1016.35
2023-01-29T03:37:45.434Z,1016.34
2023-01-29T03:38:45.438Z,1016.30
2023-01-29T03:39:45.402Z,1016.28
2023-01-29T03:40:45.440Z,1016.24
2023-01-29T03:41:45.409Z,1016.20
2023-01-29T03:42:45.416Z,1016.16
2023-01-29T03:43:45.364Z,1016.14
2023-01-29T03:44:47.011Z,1016.13
2023-01-29T03:45:45.454Z,1016.13
2023-01-29T03:46:45.356Z,1016.13
2023-01-29T03:47:45.341Z,1016.11
2023-01-29T03:48:45.330Z,1016.08
2023-01-29T03:49:45.314Z,1016.02
2023-01-29T03:50:45.340Z,1015.97
2023-01-29T03:51:45.289Z,1015.93
2023-01-29T03:52:46.479Z,1015.89
2023-01-29T03:53:45.281Z,1015.85
2023-01-29T03:54:45.303Z,1015.78
2023-01-29T03:55:45.284Z,1015.75
2023-01-29T03:56:45.253Z,1015.72
2023-01-29T03:57:45.239Z,1015.69
2023-01-29T03:58:45.222Z,1015.68
2023-01-29T03:59:45.232Z,1015.67
2023-01-29T04:00:45.232Z,1015.68
2023-01-29T04:01:45.245Z,1015.67
2023-01-29T04:02:45.188Z,1015.71
2023-01-29T04:03:45.188Z,1015.70
2023-01-29T04:04:45.167Z,1015.69
2023-01-29T04:05:45.196Z,1015.72
2023-01-29T04:06:45.164Z,1015.72
2023-01-29T04:07:45.136Z,1015.74
2023-01-29T04:08:45.149Z,1015.74
2023-01-29T04:09:45.120Z,1015.74
2023-01-29T04:10:45.129Z,1015.75
2023-01-29T04:11:45.123Z,1015.76
2023-01-29T04:12:45.099Z,1015.77
2023-01-29T04:13:45.077Z,1015.80
2023-01-29T04:14:45.085Z,1015.83
2023-01-29T04:15:45.059Z,1015.84
2023-01-29T04:16:45.120Z,1015.86
2023-01-29T04:17:45.043Z,1015.88
2023-01-29T04:18:45.047Z,1015.88
2023-01-29T04:19:45.039Z,1015.91
2023-01-29T04:20:45.022Z,1015.88
2023-01-29T04:21:45.025Z,1015.85
2023-01-29T04:22:45.004Z,1015.78
2023-01-29T04:23:44.985Z,1015.73
2023-01-29T04:24:44.975Z,1015.67
2023-01-29T04:25:44.974Z,1015.61
2023-01-29T04:26:44.981Z,1015.59
2023-01-29T04:27:44.959Z,1015.59
2023-01-29T04:28:44.967Z,1015.63
2023-01-29T04:29:44.936Z,1015.65
2023-01-29T04:30:44.980Z,1015.67
2023-01-29T04:31:44.982Z,1015.65
2023-01-29T04:32:44.900Z,1015.60
2023-01-29T04:33:44.883Z,1015.55
2023-01-29T04:34:44.884Z,1015.51
2023-01-29T04:35:44.880Z,1015.49
2023-01-29T04:36:44.894Z,1015.49
2023-01-29T04:37:44.851Z,1015.50
2023-01-29T04:38:44.849Z,1015.48
2023-01-29T04:39:44.828Z,1015.46
2023-01-29T04:40:44.834Z,1015.41
2023-01-29T04:41:44.834Z,1015.37
2023-01-29T04:42:44.826Z,1015.34
2023-01-29T04:43:44.794Z,1015.36
2023-01-29T04:44:44.794Z,1015.39
2023-01-29T04:45:44.785Z,1015.40
2023-01-29T04:46:44.810Z,1015.44
2023-01-29T04:47:44.794Z,1015.44
2023-01-29T04:48:44.761Z,1015.44
2023-01-29T04:49:44.731Z,1015.41
2023-01-29T04:50:44.730Z,1015.39
2023-01-29T04:51:44.757Z,1015.36
2023-01-29T04:52:44.721Z,1015.33
2023-01-29T04:53:44.696Z,1015.30
2023-01-29T04:54:44.699Z,1015.29
2023-01-29T04:55:44.700Z,1015.26
2023-01-29T04:56:44.700Z,1015.25
2023-01-29T04:57:44.661Z,1015.24
2023-01-29T04:58:44.678Z,1015.23
2023-01-29T04:59:44.656Z,1015.21
2023-01-29T05:00:44.638Z,1015.20
2023-01-29T05:01:44.833Z,1015.21
2023-01-29T05:02:44.626Z,1015.22
2023-01-29T05:03:44.628Z,1015.24
2023-01-29T05:04:44.605Z,1015.26
2023-01-29T05:05:44.629Z,1015.25
2023-01-29T05:06:44.607Z,1015.24
2023-01-29T05:07:44.567Z,1015.22
2023-01-29T05:08:44.562Z,1015.21
2023-01-29T05:09:44.537Z,1015.20
2023-01-29T05:10:44.536Z,1015.21
2023-01-29T05:11:44.546Z,1015.21
2023-01-29T05:12:44.516Z,1015.24
2023-01-29T05:13:44.503Z,1015.24
2023-01-29T05:14:44.494Z,1015.27
2023-01-29T05:15:44.523Z,1015.26
2023-01-29T05:16:52.157Z,1015.26
2023-01-29T05:17:50.963Z,1015.25
2023-01-29T05:18:51.259Z,1015.25
2023-01-29T05:19:50.945Z,1015.25
2023-01-29T05:20:44.442Z,1015.24
2023-01-29T05:21:44.445Z,1015.26
2023-01-29T05:22:44.423Z,1015.26
2023-01-29T05:23:44.404Z,1015.27
2023-01-29T05:24:44.417Z,1015.28
2023-01-29T05:25:44.421Z,1015.29
2023-01-29T05:26:44.401Z,1015.32
2023-01-29T05:27:44.375Z,1015.36
2023-01-29T05:28:44.356Z,1015.37
2023-01-29T05:29:44.347Z,1015.39
2023-01-29T05:30:44.411Z,1015.40
2023-01-29T05:31:44.409Z,1015.39
2023-01-29T05:32:44.325Z,1015.41
2023-01-29T05:33:44.324Z,1015.41
2023-01-29T05:34:44.311Z,1015.39
2023-01-29T05:35:44.296Z,1015.38
2023-01-29T05:36:44.315Z,1015.37
2023-01-29T05:37:44.269Z,1015.36
2023-01-29T05:38:44.282Z,1015.35
2023-01-29T05:39:44.303Z,1015.37
2023-01-29T05:40:44.236Z,1015.39
2023-01-29T05:41:44.282Z,1015.42
2023-01-29T05:42:44.225Z,1015.45
2023-01-29T05:43:44.208Z,1015.45
2023-01-29T05:44:44.223Z,1015.45
2023-01-29T05:45:44.190Z,1015.44
2023-01-29T05:46:44.266Z,1015.44
2023-01-29T05:47:44.171Z,1015.45
2023-01-29T05:48:44.165Z,1015.46
2023-01-29T05:49:44.175Z,1015.47
2023-01-29T05:50:44.139Z,1015.45
2023-01-29T05:51:44.179Z,1015.44
2023-01-29T05:52:44.155Z,1015.46
2023-01-29T05:53:44.111Z,1015.46
2023-01-29T05:54:44.113Z,1015.46
2023-01-29T05:55:44.091Z,1015.48
2023-01-29T05:56:44.103Z,1015.48
2023-01-29T05:57:44.086Z,1015.52
2023-01-29T05:58:44.057Z,1015.51
2023-01-29T05:59:44.073Z,1015.51
2023-01-29T06:00:44.039Z,1015.52
2023-01-29T06:01:44.097Z,1015.51
2023-01-29T06:02:44.070Z,1015.49
2023-01-29T06:03:44.024Z,1015.48
2023-01-29T06:04:44.003Z,1015.47
2023-01-29T06:05:44.003Z,1015.45
2023-01-29T06:06:44.007Z,1015.43
2023-01-29T06:07:43.978Z,1015.41
2023-01-29T06:08:44.011Z,1015.39
2023-01-29T06:09:43.975Z,1015.39
2023-01-29T06:10:43.957Z,1015.37
2023-01-29T06:11:43.964Z,1015.37
2023-01-29T06:12:43.941Z,1015.36
2023-01-29T06:13:43.977Z,1015.36
2023-01-29T06:14:43.904Z,1015.33
2023-01-29T06:15:43.898Z,1015.32
2023-01-29T06:16:43.935Z,1015.29
2023-01-29T06:17:43.883Z,1015.27
2023-01-29T06:18:43.879Z,1015.27
2023-01-29T06:19:43.860Z,1015.29
2023-01-29T06:20:43.848Z,1015.32
2023-01-29T06:21:43.867Z,1015.37
2023-01-29T06:22:43.825Z,1015.38
2023-01-29T06:23:43.835Z,1015.39
2023-01-29T06:24:43.815Z,1015.40
2023-01-29T06:25:50.299Z,1015.40
2023-01-29T06:26:43.812Z,1015.42
2023-01-29T06:27:43.790Z,1015.43
2023-01-29T06:28:43.780Z,1015.45
2023-01-29T06:29:43.774Z,1015.46
2023-01-29T06:30:43.800Z,1015.44
2023-01-29T06:31:43.842Z,1015.44
2023-01-29T06:32:43.728Z,1015.42
2023-01-29T06:33:43.732Z,1015.42
2023-01-29T06:34:43.721Z,1015.45
2023-01-29T06:35:43.707Z,1015.46
2023-01-29T06:36:43.719Z,1015.47
2023-01-29T06:37:43.709Z,1015.46
2023-01-29T06:38:43.673Z,1015.47
2023-01-29T06:39:43.670Z,1015.45
2023-01-29T06:40:43.663Z,1015.42
2023-01-29T06:41:43.687Z,1015.39
2023-01-29T06:42:46.069Z,1015.38
2023-01-29T06:43:43.649Z,1015.39
2023-01-29T06:44:43.612Z,1015.41
2023-01-29T06:45:43.631Z,1015.42
2023-01-29T06:46:43.618Z,1015.46
2023-01-29T06:47:43.588Z,1015.51
2023-01-29T06:48:43.528Z,1015.56
2023-01-29T06:49:43.524Z,1015.57
2023-01-29T06:50:43.509Z,1015.55
2023-01-29T06:51:43.580Z,1015.51
2023-01-29T06:52:43.495Z,1015.46
2023-01-29T06:53:46.071Z,1015.44
2023-01-29T06:54:43.489Z,1015.45
2023-01-29T06:55:43.457Z,1015.47
2023-01-29T06:56:43.452Z,1015.45
2023-01-29T06:57:43.467Z,1015.45
2023-01-29T06:58:43.483Z,1015.41
2023-01-29T06:59:43.476Z,1015.39
2023-01-29T07:00:43.461Z,1015.35
2023-01-29T07:01:43.491Z,1015.35
2023-01-29T07:02:43.428Z,1015.38
2023-01-29T07:03:43.392Z,1015.43
2023-01-29T07:04:43.382Z,1015.47
2023-01-29T07:05:43.362Z,1015.47
2023-01-29T07:06:43.350Z,1015.43
2023-01-29T07:07:43.367Z,1015.42
2023-01-29T07:08:43.316Z,1015.43
2023-01-29T07:09:43.359Z,1015.44
2023-01-29T07:10:43.300Z,1015.44
2023-01-29T07:11:43.319Z,1015.43
2023-01-29T07:12:43.323Z,1015.43
2023-01-29T07:13:43.281Z,1015.41
2023-01-29T07:14:43.265Z,1015.41
2023-01-29T07:15:43.282Z,1015.38
2023-01-29T07:16:50.749Z,1015.35
2023-01-29T07:17:51.233Z,1015.30
2023-01-29T07:18:49.721Z,1015.31
2023-01-29T07:19:49.721Z,1015.31
2023-01-29T07:20:43.203Z,1015.35
2023-01-29T07:21:43.200Z,1015.37
2023-01-29T07:22:43.242Z,1015.38
2023-01-29T07:23:43.187Z,1015.36
2023-01-29T07:24:43.169Z,1015.32
2023-01-29T07:25:43.160Z,1015.27
2023-01-29T07:26:43.164Z,1015.26
2023-01-29T07:27:43.159Z,1015.28
2023-01-29T07:28:43.145Z,1015.29
2023-01-29T07:29:43.119Z,1015.30
2023-01-29T07:30:43.114Z,1015.29
2023-01-29T07:31:49.740Z,1015.27
2023-01-29T07:33:59.816Z,1015.28
2023-01-29T07:35:07.289Z,1015.29
2023-01-29T07:36:08.287Z,1015.33
2023-01-29T07:37:08.756Z,1015.37
2023-01-29T07:38:00.756Z,1015.38
2023-01-29T07:39:00.753Z,1015.38
2023-01-29T07:40:00.761Z,1015.36
2023-01-29T07:41:03.059Z,1015.36
2023-01-29T07:42:00.744Z,1015.34
2023-01-29T07:43:00.716Z,1015.33
2023-01-29T07:44:00.692Z,1015.34
2023-01-29T07:45:00.713Z,1015.34
2023-01-29T07:46:00.708Z,1015.30
2023-01-29T07:47:00.696Z,1015.28
2023-01-29T07:48:00.659Z,1015.28
2023-01-29T07:49:00.679Z,1015.28
2023-01-29T07:50:00.677Z,1015.27
2023-01-29T07:51:00.648Z,1015.25
2023-01-29T07:52:00.665Z,1015.22
2023-01-29T07:53:00.623Z,1015.19
2023-01-29T07:54:00.601Z,1015.16
2023-01-29T07:55:00.953Z,1015.13
2023-01-29T07:56:00.591Z,1015.13
2023-01-29T07:57:00.595Z,1015.11
2023-01-29T07:58:00.572Z,1015.12
2023-01-29T07:59:00.550Z,1015.16
2023-01-29T08:00:00.559Z,1015.18
2023-01-29T08:01:00.620Z,1015.20
2023-01-29T08:02:00.613Z,1015.21
2023-01-29T08:03:00.513Z,1015.19
2023-01-29T08:04:00.515Z,1015.18
2023-01-29T08:05:00.492Z,1015.20
2023-01-29T08:06:00.485Z,1015.20
2023-01-29T08:07:00.525Z,1015.19
2023-01-29T08:08:06.840Z,1015.16
2023-01-29T08:09:00.489Z,1015.11
2023-01-29T08:10:00.447Z,1015.07
2023-01-29T08:11:00.446Z,1015.06
2023-01-29T08:12:00.453Z,1015.04
2023-01-29T08:13:00.467Z,1015.03
2023-01-29T08:14:00.426Z,1014.98
2023-01-29T08:15:00.398Z,1014.95
2023-01-29T08:16:00.390Z,1014.93
2023-01-29T08:17:00.402Z,1014.92
2023-01-29T08:18:00.363Z,1014.96
2023-01-29T08:19:00.354Z,1014.96
2023-01-29T08:20:00.366Z,1014.96
2023-01-29T08:21:00.334Z,1014.94
2023-01-29T08:22:00.367Z,1014.90
2023-01-29T08:23:00.328Z,1014.89
2023-01-29T08:25:08.291Z,1014.86
2023-01-29T08:26:00.375Z,1014.85
2023-01-29T08:27:00.300Z,1014.83
2023-01-29T08:28:00.266Z,1014.81
2023-01-29T08:29:00.265Z,1014.79
2023-01-29T08:30:00.371Z,1014.78
2023-01-29T08:31:00.343Z,1014.77
2023-01-29T08:32:00.382Z,1014.75
2023-01-29T08:33:00.215Z,1014.71
2023-01-29T08:34:00.219Z,1014.67
2023-01-29T08:35:00.961Z,1014.62
2023-01-29T08:36:00.194Z,1014.60
2023-01-29T08:37:00.206Z,1014.59
2023-01-29T08:38:00.276Z,1014.62
2023-01-29T08:39:00.172Z,1014.61
2023-01-29T08:40:00.402Z,1014.60
2023-01-29T08:41:00.153Z,1014.59
2023-01-29T08:42:00.177Z,1014.54
2023-01-29T08:43:02.161Z,1014.51
2023-01-29T08:44:00.118Z,1014.45
2023-01-29T08:45:00.103Z,1014.41
2023-01-29T08:46:00.159Z,1014.40
2023-01-29T08:47:00.116Z,1014.38
2023-01-29T08:48:00.126Z,1014.38
2023-01-29T08:49:00.124Z,1014.35
2023-01-29T08:50:00.087Z,1014.34
2023-01-29T08:51:00.045Z,1014.34
2023-01-29T08:52:02.369Z,1014.33
2023-01-29T08:53:00.083Z,1014.36
2023-01-29T08:54:00.095Z,1014.38
2023-01-29T08:55:00.031Z,1014.38
2023-01-29T08:56:00.021Z,1014.34
2023-01-29T08:57:00.024Z,1014.30
2023-01-29T08:57:59.998Z,1014.27
2023-01-29T08:58:59.989Z,1014.26
2023-01-29T08:59:59.970Z,1014.30
2023-01-29T09:00:59.962Z,1014.29
2023-01-29T09:01:59.949Z,1014.29
2023-01-29T09:02:59.987Z,1014.29
2023-01-29T09:03:59.921Z,1014.30
2023-01-29T09:04:59.925Z,1014.32
2023-01-29T09:05:59.930Z,1014.32
2023-01-29T09:06:59.939Z,1014.34
2023-01-29T09:07:59.933Z,1014.34
2023-01-29T09:08:59.894Z,1014.34
2023-01-29T09:09:59.881Z,1014.34
2023-01-29T09:10:59.858Z,1014.33
2023-01-29T09:11:59.851Z,1014.35
2023-01-29T09:12:59.881Z,1014.38
2023-01-29T09:13:59.840Z,1014.40
2023-01-29T09:14:59.829Z,1014.46
2023-01-29T09:15:59.800Z,1014.44
2023-01-29T09:16:59.839Z,1014.47
2023-01-29T09:17:59.813Z,1014.48
2023-01-29T09:18:59.786Z,1014.49
2023-01-29T09:19:59.786Z,1014.51
2023-01-29T09:20:59.754Z,1014.51
2023-01-29T09:21:59.757Z,1014.50
2023-01-29T09:22:59.798Z,1014.51
2023-01-29T09:23:59.738Z,1014.50
2023-01-29T09:24:59.735Z,1014.49
2023-01-29T09:25:59.736Z,1014.51
2023-01-29T09:26:59.708Z,1014.52
2023-01-29T09:27:59.715Z,1014.56
2023-01-29T09:28:59.680Z,1014.55
2023-01-29T09:29:59.672Z,1014.56
2023-01-29T09:30:59.729Z,1014.58
2023-01-29T09:31:59.766Z,1014.55
2023-01-29T09:32:59.686Z,1014.59
2023-01-29T09:33:59.646Z,1014.59
2023-01-29T09:34:59.629Z,1014.60
2023-01-29T09:35:59.721Z,1014.58
2023-01-29T09:36:59.611Z,1014.57
2023-01-29T09:37:59.626Z,1014.57
2023-01-29T09:38:59.589Z,1014.58
2023-01-29T09:39:59.579Z,1014.55
2023-01-29T09:40:59.601Z,1014.55
2023-01-29T09:41:59.552Z,1014.55
2023-01-29T09:42:59.567Z,1014.54
2023-01-29T09:43:59.653Z,1014.54
2023-01-29T09:44:59.526Z,1014.53
2023-01-29T09:45:59.544Z,1014.55
2023-01-29T09:46:59.506Z,1014.55
2023-01-29T09:48:07.735Z,1014.56
2023-01-29T09:49:05.975Z,1014.59
2023-01-29T09:50:06.995Z,1014.58
2023-01-29T09:50:59.469Z,1014.56
2023-01-29T09:51:59.479Z,1014.56
2023-01-29T09:52:59.475Z,1014.55
2023-01-29T09:53:59.458Z,1014.55
2023-01-29T09:54:59.431Z,1014.56
2023-01-29T09:56:05.937Z,1014.57
2023-01-29T09:57:05.915Z,1014.58
2023-01-29T09:58:07.324Z,1014.58
2023-01-29T09:59:05.897Z,1014.58
2023-01-29T09:59:59.391Z,1014.55
2023-01-29T10:01:05.934Z,1014.53
2023-01-29T10:01:59.530Z,1014.53
2023-01-29T10:02:59.374Z,1014.53
2023-01-29T10:03:59.369Z,1014.54
2023-01-29T10:04:59.326Z,1014.54
2023-01-29T10:05:59.338Z,1014.55
2023-01-29T10:06:59.327Z,1014.55
2023-01-29T10:07:59.337Z,1014.55
2023-01-29T10:08:59.356Z,1014.54
2023-01-29T10:09:59.295Z,1014.54
2023-01-29T10:10:59.290Z,1014.52
2023-01-29T10:11:59.268Z,1014.51
2023-01-29T10:12:59.317Z,1014.45
2023-01-29T10:13:59.283Z,1014.38
2023-01-29T10:14:59.228Z,1014.33
2023-01-29T10:15:59.224Z,1014.31
2023-01-29T10:16:59.305Z,1014.29
2023-01-29T10:17:59.236Z,1014.26
2023-01-29T10:18:59.199Z,1014.24
2023-01-29T10:19:59.198Z,1014.22
2023-01-29T10:20:59.234Z,1014.22
2023-01-29T10:22:00.241Z,1014.22
2023-01-29T10:22:59.193Z,1014.22
2023-01-29T10:23:59.163Z,1014.23
2023-01-29T10:24:59.222Z,1014.25
2023-01-29T10:25:59.139Z,1014.21
2023-01-29T10:26:59.383Z,1014.20
2023-01-29T10:27:59.168Z,1014.20
2023-01-29T10:28:59.091Z,1014.15
2023-01-29T10:29:59.096Z,1014.11
2023-01-29T10:30:59.195Z,1014.08
2023-01-29T10:31:59.950Z,1014.12
2023-01-29T10:32:59.075Z,1014.14
2023-01-29T10:34:02.551Z,1014.13
2023-01-29T10:34:59.034Z,1014.12
2023-01-29T10:35:59.064Z,1014.10
2023-01-29T10:36:59.008Z,1014.10
2023-01-29T10:37:59.010Z,1014.12
2023-01-29T10:38:59.023Z,1014.16
2023-01-29T10:39:58.981Z,1014.15
2023-01-29T10:40:58.980Z,1014.15
2023-01-29T10:41:58.965Z,1014.16
2023-01-29T10:42:58.945Z,1014.16
2023-01-29T10:43:58.978Z,1014.13
2023-01-29T10:44:58.929Z,1014.14
2023-01-29T10:46:05.428Z,1014.09
2023-01-29T10:46:58.950Z,1014.03
2023-01-29T10:47:58.912Z,1014.04
2023-01-29T10:48:58.943Z,1014.02
2023-01-29T10:49:58.883Z,1014.00
2023-01-29T10:50:58.886Z,1014.02
2023-01-29T10:51:58.857Z,1014.00
2023-01-29T10:52:58.859Z,1013.97
2023-01-29T10:53:58.869Z,1013.94
2023-01-29T10:54:58.858Z,1013.90
2023-01-29T10:55:58.822Z,1013.89
2023-01-29T10:56:58.807Z,1013.88
2023-01-29T10:57:58.793Z,1013.85
2023-01-29T10:58:58.801Z,1013.84
2023-01-29T10:59:58.772Z,1013.85
2023-01-29T11:00:58.766Z,1013.83
2023-01-29T11:01:58.792Z,1013.83
2023-01-29T11:02:58.914Z,1013.80
2023-01-29T11:03:58.780Z,1013.82
2023-01-29T11:04:58.722Z,1013.78
2023-01-29T11:05:58.722Z,1013.79
2023-01-29T11:06:58.700Z,1013.75
2023-01-29T11:07:58.693Z,1013.73
2023-01-29T11:08:58.710Z,1013.74
2023-01-29T11:09:58.676Z,1013.74
2023-01-29T11:10:58.665Z,1013.73
2023-01-29T11:11:58.658Z,1013.72
2023-01-29T11:12:58.651Z,1013.71
2023-01-29T11:13:58.655Z,1013.66
2023-01-29T11:14:58.649Z,1013.65
2023-01-29T11:16:06.111Z,1013.61
2023-01-29T11:16:58.688Z,1013.61
2023-01-29T11:17:58.589Z,1013.58
2023-01-29T11:18:58.639Z,1013.58
2023-01-29T11:19:58.583Z,1013.56
2023-01-29T11:20:58.566Z,1013.56
2023-01-29T11:21:58.569Z,1013.50
2023-01-29T11:22:58.535Z,1013.49
2023-01-29T11:23:58.653Z,1013.49
2023-01-29T11:24:58.508Z,1013.47
2023-01-29T11:25:58.661Z,1013.49
2023-01-29T11:26:58.534Z,1013.51
2023-01-29T11:27:59.425Z,1013.50
2023-01-29T11:28:58.487Z,1013.50
2023-01-29T11:29:58.472Z,1013.50
2023-01-29T11:30:58.523Z,1013.46
2023-01-29T11:31:58.549Z,1013.45
2023-01-29T11:32:58.428Z,1013.42
2023-01-29T11:33:58.447Z,1013.39
2023-01-29T11:34:58.433Z,1013.38
2023-01-29T11:35:58.400Z,1013.31
2023-01-29T11:36:58.401Z,1013.35
2023-01-29T11:37:58.387Z,1013.33
2023-01-29T11:38:58.403Z,1013.35
2023-01-29T11:39:58.366Z,1013.34
2023-01-29T11:40:58.350Z,1013.33
2023-01-29T11:41:58.346Z,1013.34
2023-01-29T11:42:58.362Z,1013.30
2023-01-29T11:43:58.375Z,1013.29
2023-01-29T11:44:58.307Z,1013.27
2023-01-29T11:45:58.296Z,1013.26
2023-01-29T11:46:58.290Z,1013.25
2023-01-29T11:47:59.357Z,1013.25
2023-01-29T11:48:59.336Z,1013.21
2023-01-29T11:49:58.281Z,1013.18
2023-01-29T11:50:58.246Z,1013.15
2023-01-29T11:51:58.313Z,1013.13
2023-01-29T11:52:58.238Z,1013.10
2023-01-29T11:53:58.218Z,1013.07
2023-01-29T11:54:58.238Z,1013.06
2023-01-29T11:55:58.191Z,1013.02
2023-01-29T11:56:58.230Z,1013.00
2023-01-29T11:57:58.225Z,1012.96
2023-01-29T11:58:58.172Z,1012.93
2023-01-29T11:59:58.220Z,1012.89
2023-01-29T12:00:58.150Z,1012.86
2023-01-29T12:01:58.179Z,1012.82
2023-01-29T12:02:58.175Z,1012.80
2023-01-29T12:03:58.145Z,1012.81
2023-01-29T12:04:58.888Z,1012.79
2023-01-29T12:06:05.647Z,1012.76
2023-01-29T12:06:58.130Z,1012.78
2023-01-29T12:07:58.086Z,1012.78